sensor_id;sensor_type;location;lat;lon;timestamp;pressure;altitude;pressure_sealevel;temperature;humidity
74893;BME280;63446;56.272;43.922;2023-05-01T00:00:43;99552.41;;;11.24;71.05
74893;BME280;63446;56.272;43.922;2023-05-01T00:03:09;99551.13;;;11.21;71.37
74893;BME280;63446;56.272;43.922;2023-05-01T00:05:34;99542.13;;;11.22;71.22
74893;BME280;63446;56.272;43.922;2023-05-01T00:08:00;99542.91;;;11.23;71.33
74893;BME280;63446;56.272;43.922;2023-05-01T00:10:26;99536.34;;;11.20;71.37
74893;BME280;63446;56.272;43.922;2023-05-01T00:12:53;99530.53;;;11.18;71.54
74893;BME280;63446;56.272;43.922;2023-05-01T00:15:19;99543.78;;;11.18;71.60
74893;BME280;63446;56.272;43.922;2023-05-01T00:17:44;99537.69;;;11.18;71.69
74893;BME280;63446;56.272;43.922;2023-05-01T00:20:10;99536.66;;;11.19;71.68
74893;BME280;63446;56.272;43.922;2023-05-01T00:22:37;99544.56;;;11.19;71.80
74893;BME280;63446;56.272;43.922;2023-05-01T00:25:03;99549.88;;;11.19;71.83
74893;BME280;63446;56.272;43.922;2023-05-01T00:27:29;99542.72;;;11.19;71.84
74893;BME280;63446;56.272;43.922;2023-05-01T00:29:56;99549.88;;;11.19;72.01
74893;BME280;63446;56.272;43.922;2023-05-01T00:32:22;99548.47;;;11.21;71.94
74893;BME280;63446;56.272;43.922;2023-05-01T00:34:48;99545.84;;;11.21;72.11
74893;BME280;63446;56.272;43.922;2023-05-01T00:37:14;99537.91;;;11.21;72.12
74893;BME280;63446;56.272;43.922;2023-05-01T00:39:39;99552.22;;;11.20;72.14
74893;BME280;63446;56.272;43.922;2023-05-01T00:42:06;99553.00;;;11.21;72.23
74893;BME280;63446;56.272;43.922;2023-05-01T00:44:32;99554.56;;;11.22;72.22
74893;BME280;63446;56.272;43.922;2023-05-01T00:46:58;99544.28;;;11.20;72.18
74893;BME280;63446;56.272;43.922;2023-05-01T00:49:27;99553.00;;;11.21;72.25
74893;BME280;63446;56.272;43.922;2023-05-01T00:51:53;99537.44;;;11.19;72.35
74893;BME280;63446;56.272;43.922;2023-05-01T00:54:20;99545.34;;;11.19;72.45
74893;BME280;63446;56.272;43.922;2023-05-01T00:56:47;99547.50;;;11.17;72.46
74893;BME280;63446;56.272;43.922;2023-05-01T00:59:14;99539.09;;;11.15;72.54
74893;BME280;63446;56.272;43.922;2023-05-01T01:01:41;99547.59;;;11.12;72.66
74893;BME280;63446;56.272;43.922;2023-05-01T01:04:07;99541.03;;;11.10;72.78
74893;BME280;63446;56.272;43.922;2023-05-01T01:09:22;99530.44;;;11.10;72.83
74893;BME280;63446;56.272;43.922;2023-05-01T01:12:11;99524.47;;;11.04;73.02
74893;BME280;63446;56.272;43.922;2023-05-01T01:31:59;99498.31;;;11.03;73.31
74893;BME280;63446;56.272;43.922;2023-05-01T01:34:50;99508.03;;;11.07;73.42
74893;BME280;63446;56.272;43.922;2023-05-01T01:37:29;99504.22;;;11.13;73.36
74893;BME280;63446;56.272;43.922;2023-05-01T01:42:36;99501.00;;;11.30;73.31
74893;BME280;63446;56.272;43.922;2023-05-01T01:45:11;99519.81;;;11.42;73.23
74893;BME280;63446;56.272;43.922;2023-05-01T01:47:41;99521.06;;;11.59;73.08
74893;BME280;63446;56.272;43.922;2023-05-01T01:50:10;99526.84;;;11.74;72.86
74893;BME280;63446;56.272;43.922;2023-05-01T01:52:39;99517.91;;;11.98;72.51
74893;BME280;63446;56.272;43.922;2023-05-01T01:55:10;99522.44;;;12.20;72.11
74893;BME280;63446;56.272;43.922;2023-05-01T01:57:39;99521.63;;;12.56;71.45
74893;BME280;63446;56.272;43.922;2023-05-01T02:00:09;99512.00;;;12.91;70.86
74893;BME280;63446;56.272;43.922;2023-05-01T02:02:45;99522.69;;;13.39;69.66
74893;BME280;63446;56.272;43.922;2023-05-01T02:05:14;99515.66;;;14.01;68.42
74893;BME280;63446;56.272;43.922;2023-05-01T02:07:42;99533.75;;;14.68;67.14
74893;BME280;63446;56.272;43.922;2023-05-01T02:10:12;99534.69;;;15.28;65.42
74893;BME280;63446;56.272;43.922;2023-05-01T02:12:45;99539.38;;;15.69;64.43
74893;BME280;63446;56.272;43.922;2023-05-01T02:15:15;99534.06;;;15.90;63.70
74893;BME280;63446;56.272;43.922;2023-05-01T02:17:44;99539.41;;;15.90;63.61
74893;BME280;63446;56.272;43.922;2023-05-01T02:20:10;99545.38;;;15.87;63.64
74893;BME280;63446;56.272;43.922;2023-05-01T02:22:41;99543.38;;;15.84;64.01
74893;BME280;63446;56.272;43.922;2023-05-01T02:25:10;99537.06;;;15.89;63.88
74893;BME280;63446;56.272;43.922;2023-05-01T02:27:42;99543.19;;;15.89;63.93
74893;BME280;63446;56.272;43.922;2023-05-01T02:30:09;99552.59;;;15.86;64.16
74893;BME280;63446;56.272;43.922;2023-05-01T02:32:36;99550.47;;;15.80;64.19
74893;BME280;63446;56.272;43.922;2023-05-01T02:35:02;99555.81;;;15.71;64.42
74893;BME280;63446;56.272;43.922;2023-05-01T02:37:29;99557.72;;;15.62;64.41
74893;BME280;63446;56.272;43.922;2023-05-01T02:39:56;99553.53;;;15.52;64.63
74893;BME280;63446;56.272;43.922;2023-05-01T02:42:23;99563.78;;;15.42;64.78
74893;BME280;63446;56.272;43.922;2023-05-01T02:45:01;99568.47;;;15.36;64.89
74893;BME280;63446;56.272;43.922;2023-05-01T02:47:37;99556.91;;;15.32;64.89
74893;BME280;63446;56.272;43.922;2023-05-01T02:50:05;99571.78;;;15.33;65.07
74893;BME280;63446;56.272;43.922;2023-05-01T02:52:33;99574.00;;;15.31;65.05
74893;BME280;63446;56.272;43.922;2023-05-01T02:55:25;99569.78;;;15.30;65.10
74893;BME280;63446;56.272;43.922;2023-05-01T02:57:51;99586.66;;;15.34;65.05
74893;BME280;63446;56.272;43.922;2023-05-01T03:00:17;99588.69;;;15.37;64.99
74893;BME280;63446;56.272;43.922;2023-05-01T03:02:43;99594.66;;;15.34;64.92
74893;BME280;63446;56.272;43.922;2023-05-01T03:05:09;99588.22;;;15.35;64.95
74893;BME280;63446;56.272;43.922;2023-05-01T03:07:35;99590.88;;;15.35;64.92
74893;BME280;63446;56.272;43.922;2023-05-01T03:10:05;99587.44;;;15.34;64.93
74893;BME280;63446;56.272;43.922;2023-05-01T03:12:33;99590.56;;;15.36;64.85
74893;BME280;63446;56.272;43.922;2023-05-01T03:14:59;99597.78;;;15.36;64.83
74893;BME280;63446;56.272;43.922;2023-05-01T03:17:25;99600.44;;;15.36;64.95
74893;BME280;63446;56.272;43.922;2023-05-01T03:19:51;99608.75;;;15.34;64.87
74893;BME280;63446;56.272;43.922;2023-05-01T03:22:17;99600.75;;;15.34;65.05
74893;BME280;63446;56.272;43.922;2023-05-01T03:24:43;99594.66;;;15.34;65.08
74893;BME280;63446;56.272;43.922;2023-05-01T03:27:09;99600.75;;;15.34;64.96
74893;BME280;63446;56.272;43.922;2023-05-01T03:29:36;99595.44;;;15.34;65.13
74893;BME280;63446;56.272;43.922;2023-05-01T03:32:05;99601.69;;;15.38;65.02
74893;BME280;63446;56.272;43.922;2023-05-01T03:34:31;99607.78;;;15.39;64.88
74893;BME280;63446;56.272;43.922;2023-05-01T03:36:58;99608.91;;;15.38;65.09
74893;BME280;63446;56.272;43.922;2023-05-01T03:39:25;99619.84;;;15.36;64.94
74893;BME280;63446;56.272;43.922;2023-05-01T03:42:24;99615.03;;;15.30;64.94
74893;BME280;63446;56.272;43.922;2023-05-01T03:44:56;99623.66;;;15.27;65.09
74893;BME280;63446;56.272;43.922;2023-05-01T03:47:22;99634.28;;;15.27;65.20
74893;BME280;63446;56.272;43.922;2023-05-01T03:49:49;99627.09;;;15.27;65.27
74893;BME280;63446;56.272;43.922;2023-05-01T03:52:15;99627.53;;;15.29;65.24
74893;BME280;63446;56.272;43.922;2023-05-01T03:54:42;99623.31;;;15.28;65.33
74893;BME280;63446;56.272;43.922;2023-05-01T03:57:25;99642.13;;;15.23;65.22
74893;BME280;63446;56.272;43.922;2023-05-01T03:59:52;99646.81;;;15.26;65.45
74893;BME280;63446;56.272;43.922;2023-05-01T04:02:20;99646.00;;;15.26;65.35
74893;BME280;63446;56.272;43.922;2023-05-01T04:04:45;99635.25;;;15.22;65.44
74893;BME280;63446;56.272;43.922;2023-05-01T04:07:12;99642.91;;;15.24;65.54
74893;BME280;63446;56.272;43.922;2023-05-01T04:09:39;99631.47;;;15.23;65.62
74893;BME280;63446;56.272;43.922;2023-05-01T04:12:07;99625.22;;;15.19;65.79
74893;BME280;63446;56.272;43.922;2023-05-01T04:14:32;99630.84;;;15.18;65.69
74893;BME280;63446;56.272;43.922;2023-05-01T04:16:58;99626.97;;;15.15;65.82
74893;BME280;63446;56.272;43.922;2023-05-01T04:19:26;99634.94;;;15.15;66.06
74893;BME280;63446;56.272;43.922;2023-05-01T04:21:56;99621.78;;;15.10;65.98
74893;BME280;63446;56.272;43.922;2023-05-01T04:24:24;99635.09;;;15.10;65.87
74893;BME280;63446;56.272;43.922;2023-05-01T04:26:51;99643.41;;;15.08;65.96
74893;BME280;63446;56.272;43.922;2023-05-01T04:29:17;99653.56;;;15.06;65.94
74893;BME280;63446;56.272;43.922;2023-05-01T04:31:42;99667.53;;;15.03;65.94
74893;BME280;63446;56.272;43.922;2023-05-01T04:34:08;99684.41;;;14.99;65.86
74893;BME280;63446;56.272;43.922;2023-05-01T04:36:36;99704.31;;;14.93;65.95
74893;BME280;63446;56.272;43.922;2023-05-01T04:39:02;99712.44;;;14.87;65.99
74893;BME280;63446;56.272;43.922;2023-05-01T04:41:29;99712.28;;;14.84;66.16
74893;BME280;63446;56.272;43.922;2023-05-01T04:43:55;99703.38;;;14.80;66.09
74893;BME280;63446;56.272;43.922;2023-05-01T04:46:21;99697.56;;;14.78;65.98
74893;BME280;63446;56.272;43.922;2023-05-01T04:48:47;99681.28;;;14.79;65.93
74893;BME280;63446;56.272;43.922;2023-05-01T04:51:13;99691.63;;;14.81;65.79
74893;BME280;63446;56.272;43.922;2023-05-01T04:53:39;99691.00;;;14.84;65.69
74893;BME280;63446;56.272;43.922;2023-05-01T04:56:14;99697.41;;;14.83;65.52
74893;BME280;63446;56.272;43.922;2023-05-01T04:58:40;99687.69;;;14.87;65.51
74893;BME280;63446;56.272;43.922;2023-05-01T05:01:11;99674.88;;;14.89;65.40
74893;BME280;63446;56.272;43.922;2023-05-01T05:03:38;99688.34;;;14.93;65.26
74893;BME280;63446;56.272;43.922;2023-05-01T05:06:05;99694.59;;;14.97;65.13
74893;BME280;63446;56.272;43.922;2023-05-01T05:08:31;99708.50;;;15.02;64.95
74893;BME280;63446;56.272;43.922;2023-05-01T05:11:07;99731.53;;;15.07;64.69
74893;BME280;63446;56.272;43.922;2023-05-01T05:13:43;99711.81;;;15.17;64.39
74893;BME280;63446;56.272;43.922;2023-05-01T05:16:12;99700.50;;;15.28;64.24
74893;BME280;63446;56.272;43.922;2023-05-01T05:18:38;99686.69;;;15.44;64.19
74893;BME280;63446;56.272;43.922;2023-05-01T05:21:05;99680.56;;;15.60;63.67
74893;BME280;63446;56.272;43.922;2023-05-01T05:23:31;99677.38;;;15.76;63.26
74893;BME280;63446;56.272;43.922;2023-05-01T05:26:01;99669.47;;;15.97;62.75
74893;BME280;63446;56.272;43.922;2023-05-01T05:28:28;99678.31;;;16.18;62.26
74893;BME280;63446;56.272;43.922;2023-05-01T05:30:55;99685.34;;;16.44;61.88
74893;BME280;63446;56.272;43.922;2023-05-01T05:33:21;99680.50;;;16.67;61.14
74893;BME280;63446;56.272;43.922;2023-05-01T05:35:50;99688.06;;;16.86;60.58
74893;BME280;63446;56.272;43.922;2023-05-01T05:38:17;99704.25;;;17.01;60.12
74893;BME280;63446;56.272;43.922;2023-05-01T05:40:47;99710.97;;;17.07;59.89
74893;BME280;63446;56.272;43.922;2023-05-01T05:43:13;99697.06;;;17.14;59.70
74893;BME280;63446;56.272;43.922;2023-05-01T05:45:39;99703.22;;;17.15;59.71
74893;BME280;63446;56.272;43.922;2023-05-01T05:48:05;99723.47;;;17.16;59.81
74893;BME280;63446;56.272;43.922;2023-05-01T05:50:38;99721.31;;;17.09;59.86
74893;BME280;63446;56.272;43.922;2023-05-01T05:53:04;99711.16;;;17.02;59.53
74893;BME280;63446;56.272;43.922;2023-05-01T05:55:29;99709.84;;;17.08;59.52
74893;BME280;63446;56.272;43.922;2023-05-01T05:58:04;99721.56;;;17.16;59.27
74893;BME280;63446;56.272;43.922;2023-05-01T06:00:30;99725.81;;;17.29;58.83
74893;BME280;63446;56.272;43.922;2023-05-01T06:03:00;99734.44;;;17.35;58.50
74893;BME280;63446;56.272;43.922;2023-05-01T06:05:29;99724.31;;;17.41;58.32
74893;BME280;63446;56.272;43.922;2023-05-01T06:07:55;99718.91;;;17.49;58.08
74893;BME280;63446;56.272;43.922;2023-05-01T06:10:21;99721.69;;;17.53;58.02
74893;BME280;63446;56.272;43.922;2023-05-01T06:12:47;99744.03;;;17.48;58.09
74893;BME280;63446;56.272;43.922;2023-05-01T06:15:13;99749.34;;;17.36;58.30
74893;BME280;63446;56.272;43.922;2023-05-01T06:17:44;99742.28;;;17.19;58.50
74893;BME280;63446;56.272;43.922;2023-05-01T06:20:11;99755.88;;;17.05;58.64
74893;BME280;63446;56.272;43.922;2023-05-01T06:22:38;99770.94;;;16.89;58.94
74893;BME280;63446;56.272;43.922;2023-05-01T06:25:14;99775.72;;;16.75;59.38
74893;BME280;63446;56.272;43.922;2023-05-01T06:27:40;99782.84;;;16.62;59.53
74893;BME280;63446;56.272;43.922;2023-05-01T06:30:07;99771.44;;;16.53;59.80
74893;BME280;63446;56.272;43.922;2023-05-01T06:32:35;99734.41;;;16.51;60.01
74893;BME280;63446;56.272;43.922;2023-05-01T06:35:01;99703.31;;;16.55;59.92
74893;BME280;63446;56.272;43.922;2023-05-01T06:37:30;99651.91;;;16.67;59.79
74893;BME280;63446;56.272;43.922;2023-05-01T06:39:56;99662.88;;;16.95;59.47
74893;BME280;63446;56.272;43.922;2023-05-01T06:42:22;99629.16;;;17.36;58.63
74893;BME280;63446;56.272;43.922;2023-05-01T06:44:48;99660.16;;;17.74;57.99
74893;BME280;63446;56.272;43.922;2023-05-01T06:47:14;99710.97;;;17.98;57.42
74893;BME280;63446;56.272;43.922;2023-05-01T06:49:40;99752.44;;;18.04;57.20
74893;BME280;63446;56.272;43.922;2023-05-01T06:52:08;99740.38;;;17.98;57.17
74893;BME280;63446;56.272;43.922;2023-05-01T06:54:34;99750.53;;;17.93;57.27
74893;BME280;63446;56.272;43.922;2023-05-01T06:57:00;99738.16;;;17.88;57.29
74893;BME280;63446;56.272;43.922;2023-05-01T06:59:27;99760.63;;;17.87;57.55
74893;BME280;63446;56.272;43.922;2023-05-01T07:01:53;99772.00;;;17.84;57.70
74893;BME280;63446;56.272;43.922;2023-05-01T07:04:18;99772.97;;;17.79;57.83
74893;BME280;63446;56.272;43.922;2023-05-01T07:06:45;99783.84;;;17.74;58.00
74893;BME280;63446;56.272;43.922;2023-05-01T07:09:11;99788.53;;;17.65;58.08
74893;BME280;63446;56.272;43.922;2023-05-01T07:11:39;99793.94;;;17.56;58.17
74893;BME280;63446;56.272;43.922;2023-05-01T07:14:07;99787.75;;;17.44;58.21
74893;BME280;63446;56.272;43.922;2023-05-01T07:16:33;99789.59;;;17.31;58.44
74893;BME280;63446;56.272;43.922;2023-05-01T07:18:59;99799.13;;;17.20;58.86
74893;BME280;63446;56.272;43.922;2023-05-01T07:21:25;99804.19;;;17.13;58.84
74893;BME280;63446;56.272;43.922;2023-05-01T07:23:51;99795.91;;;17.05;58.87
74893;BME280;63446;56.272;43.922;2023-05-01T07:26:16;99803.34;;;17.00;58.91
74893;BME280;63446;56.272;43.922;2023-05-01T07:28:42;99810.88;;;16.98;58.85
74893;BME280;63446;56.272;43.922;2023-05-01T07:31:08;99797.75;;;16.93;59.16
74893;BME280;63446;56.272;43.922;2023-05-01T07:33:34;99808.56;;;16.96;58.98
74893;BME280;63446;56.272;43.922;2023-05-01T07:36:01;99818.47;;;16.96;59.05
74893;BME280;63446;56.272;43.922;2023-05-01T07:38:29;99824.88;;;16.95;59.27
74893;BME280;63446;56.272;43.922;2023-05-01T07:40:55;99829.56;;;16.98;58.95
74893;BME280;63446;56.272;43.922;2023-05-01T07:43:22;99839.16;;;16.99;58.88
74893;BME280;63446;56.272;43.922;2023-05-01T07:45:58;99841.69;;;16.95;58.80
74893;BME280;63446;56.272;43.922;2023-05-01T07:48:26;99846.91;;;16.92;58.69
74893;BME280;63446;56.272;43.922;2023-05-01T07:50:53;99854.13;;;16.91;59.00
74893;BME280;63446;56.272;43.922;2023-05-01T07:53:19;99866.22;;;16.89;59.11
74893;BME280;63446;56.272;43.922;2023-05-01T07:55:47;99872.53;;;16.84;59.19
74893;BME280;63446;56.272;43.922;2023-05-01T07:58:13;99878.03;;;16.79;59.56
74893;BME280;63446;56.272;43.922;2023-05-01T08:00:39;99884.16;;;16.71;59.41
74893;BME280;63446;56.272;43.922;2023-05-01T08:03:04;99888.44;;;16.63;59.71
74893;BME280;63446;56.272;43.922;2023-05-01T08:05:30;99891.59;;;16.56;59.81
74893;BME280;63446;56.272;43.922;2023-05-01T08:07:57;99908.09;;;16.50;59.89
74893;BME280;63446;56.272;43.922;2023-05-01T08:10:22;99932.44;;;16.40;60.11
74893;BME280;63446;56.272;43.922;2023-05-01T08:12:49;99943.75;;;16.28;60.32
74893;BME280;63446;56.272;43.922;2023-05-01T08:15:15;99954.75;;;16.18;60.44
74893;BME280;63446;56.272;43.922;2023-05-01T08:17:40;99966.81;;;16.06;60.75
74893;BME280;63446;56.272;43.922;2023-05-01T08:20:07;99969.81;;;15.96;60.92
74893;BME280;63446;56.272;43.922;2023-05-01T08:22:33;99955.06;;;15.90;61.16
74893;BME280;63446;56.272;43.922;2023-05-01T08:24:59;99945.03;;;15.87;61.29
74893;BME280;63446;56.272;43.922;2023-05-01T08:27:25;99923.44;;;15.89;61.11
74893;BME280;63446;56.272;43.922;2023-05-01T08:29:51;99921.69;;;15.93;61.26
74893;BME280;63446;56.272;43.922;2023-05-01T08:32:18;99905.41;;;16.03;61.22
74893;BME280;63446;56.272;43.922;2023-05-01T08:34:43;99899.09;;;16.16;61.31
74893;BME280;63446;56.272;43.922;2023-05-01T08:37:10;99910.34;;;16.30;61.13
74893;BME280;63446;56.272;43.922;2023-05-01T08:39:36;99890.56;;;16.40;60.89
74893;BME280;63446;56.272;43.922;2023-05-01T08:42:01;99896.00;;;16.52;60.75
74893;BME280;63446;56.272;43.922;2023-05-01T08:44:29;99902.25;;;16.56;60.82
74893;BME280;63446;56.272;43.922;2023-05-01T08:47:21;99912.16;;;16.56;60.87
74893;BME280;63446;56.272;43.922;2023-05-01T08:49:48;99904.00;;;16.61;60.75
74893;BME280;63446;56.272;43.922;2023-05-01T08:52:16;99910.25;;;16.65;60.68
74893;BME280;63446;56.272;43.922;2023-05-01T08:54:43;99901.72;;;16.72;60.58
74893;BME280;63446;56.272;43.922;2023-05-01T08:57:11;99893.25;;;16.78;60.41
74893;BME280;63446;56.272;43.922;2023-05-01T08:59:38;99911.91;;;16.87;60.20
74893;BME280;63446;56.272;43.922;2023-05-01T09:02:06;99921.16;;;16.90;60.26
74893;BME280;63446;56.272;43.922;2023-05-01T09:04:34;99924.75;;;16.94;60.13
74893;BME280;63446;56.272;43.922;2023-05-01T09:07:02;99908.56;;;16.99;59.89
74893;BME280;63446;56.272;43.922;2023-05-01T09:09:29;99914.03;;;17.02;59.60
74893;BME280;63446;56.272;43.922;2023-05-01T09:14:44;99915.88;;;17.11;59.19
74893;BME280;63446;56.272;43.922;2023-05-01T09:17:11;99919.13;;;17.16;59.34
74893;BME280;63446;56.272;43.922;2023-05-01T09:19:37;99913.88;;;17.28;58.72
74893;BME280;63446;56.272;43.922;2023-05-01T09:22:06;99903.22;;;17.49;58.42
74893;BME280;63446;56.272;43.922;2023-05-01T09:24:31;99880.25;;;17.90;57.70
74893;BME280;63446;56.272;43.922;2023-05-01T09:26:58;99874.13;;;18.23;56.87
74893;BME280;63446;56.272;43.922;2023-05-01T09:29:44;99851.00;;;18.88;55.90
74893;BME280;63446;56.272;43.922;2023-05-01T09:32:24;99854.44;;;19.54;54.11
74893;BME280;63446;56.272;43.922;2023-05-01T09:34:54;99842.88;;;19.93;53.05
74893;BME280;63446;56.272;43.922;2023-05-01T09:37:31;99831.75;;;20.23;52.64
74893;BME280;63446;56.272;43.922;2023-05-01T09:42:34;99834.47;;;20.90;51.34
74893;BME280;63446;56.272;43.922;2023-05-01T09:45:03;99827.13;;;21.06;50.98
74893;BME280;63446;56.272;43.922;2023-05-01T09:47:32;99821.00;;;21.25;50.37
74893;BME280;63446;56.272;43.922;2023-05-01T09:49:59;99828.91;;;21.34;50.37
74893;BME280;63446;56.272;43.922;2023-05-01T09:52:26;99813.69;;;21.41;49.57
74893;BME280;63446;56.272;43.922;2023-05-01T09:55:14;99828.59;;;21.58;49.19
74893;BME280;63446;56.272;43.922;2023-05-01T09:57:42;99843.31;;;21.64;49.02
74893;BME280;63446;56.272;43.922;2023-05-01T10:00:09;99843.19;;;21.57;49.22
74893;BME280;63446;56.272;43.922;2023-05-01T10:02:35;99848.34;;;21.47;48.95
74893;BME280;63446;56.272;43.922;2023-05-01T10:05:01;99859.47;;;21.29;49.32
74893;BME280;63446;56.272;43.922;2023-05-01T10:07:29;99840.16;;;21.24;49.29
74893;BME280;63446;56.272;43.922;2023-05-01T10:09:55;99827.28;;;21.13;49.06
74893;BME280;63446;56.272;43.922;2023-05-01T10:12:22;99840.84;;;21.01;49.20
74893;BME280;63446;56.272;43.922;2023-05-01T10:14:54;99841.94;;;20.81;49.61
74893;BME280;63446;56.272;43.922;2023-05-01T10:17:20;99844.03;;;20.56;49.69
74893;BME280;63446;56.272;43.922;2023-05-01T10:19:47;99829.41;;;20.37;49.88
74893;BME280;63446;56.272;43.922;2023-05-01T10:22:14;99835.19;;;20.39;49.76
74893;BME280;63446;56.272;43.922;2023-05-01T10:24:40;99839.34;;;20.37;49.59
74893;BME280;63446;56.272;43.922;2023-05-01T10:27:06;99862.38;;;20.22;50.13
74893;BME280;63446;56.272;43.922;2023-05-01T10:29:36;99940.09;;;19.90;50.52
74893;BME280;63446;56.272;43.922;2023-05-01T10:32:03;99934.47;;;19.55;51.09
74893;BME280;63446;56.272;43.922;2023-05-01T10:34:37;99876.41;;;19.19;51.67
74893;BME280;63446;56.272;43.922;2023-05-01T10:37:14;99857.13;;;18.89;52.65
74893;BME280;63446;56.272;43.922;2023-05-01T10:39:42;99865.94;;;18.65;53.74
74893;BME280;63446;56.272;43.922;2023-05-01T10:42:09;99893.78;;;18.39;54.55
74893;BME280;63446;56.272;43.922;2023-05-01T10:44:40;99973.28;;;18.18;54.87
74893;BME280;63446;56.272;43.922;2023-05-01T10:50:09;100134.06;;;17.48;55.57
74893;BME280;63446;56.272;43.922;2023-05-01T10:55:37;99942.25;;;16.74;57.84
74893;BME280;63446;56.272;43.922;2023-05-01T10:58:05;99943.56;;;16.50;59.00
74893;BME280;63446;56.272;43.922;2023-05-01T11:00:31;99904.41;;;16.33;60.36
74893;BME280;63446;56.272;43.922;2023-05-01T11:08:35;99888.28;;;16.04;62.20
74893;BME280;63446;56.272;43.922;2023-05-01T11:14:11;99936.91;;;15.92;63.24
74893;BME280;63446;56.272;43.922;2023-05-01T11:21:46;99912.94;;;15.92;63.78
74893;BME280;63446;56.272;43.922;2023-05-01T11:24:13;99941.59;;;15.86;64.38
74893;BME280;63446;56.272;43.922;2023-05-01T11:26:39;99912.78;;;15.80;64.93
74893;BME280;63446;56.272;43.922;2023-05-01T11:29:08;99908.38;;;15.75;65.49
74893;BME280;63446;56.272;43.922;2023-05-01T11:31:38;99953.66;;;15.75;65.85
74893;BME280;63446;56.272;43.922;2023-05-01T11:34:04;99992.69;;;15.71;65.74
74893;BME280;63446;56.272;43.922;2023-05-01T11:36:53;99999.88;;;15.71;65.46
74893;BME280;63446;56.272;43.922;2023-05-01T11:39:19;100002.88;;;15.78;65.35
74893;BME280;63446;56.272;43.922;2023-05-01T11:41:46;99998.34;;;15.87;65.51
74893;BME280;63446;56.272;43.922;2023-05-01T11:44:16;100005.56;;;15.95;65.63
74893;BME280;63446;56.272;43.922;2023-05-01T11:46:43;100008.22;;;16.04;65.57
74893;BME280;63446;56.272;43.922;2023-05-01T11:49:10;100014.97;;;16.10;65.40
74893;BME280;63446;56.272;43.922;2023-05-01T11:51:36;100023.28;;;16.17;65.11
74893;BME280;63446;56.272;43.922;2023-05-01T11:54:04;100022.03;;;16.23;64.86
74893;BME280;63446;56.272;43.922;2023-05-01T11:56:31;100021.25;;;16.31;64.66
74893;BME280;63446;56.272;43.922;2023-05-01T11:59:10;100022.16;;;16.44;64.62
74893;BME280;63446;56.272;43.922;2023-05-01T12:01:40;100017.13;;;16.51;64.22
74893;BME280;63446;56.272;43.922;2023-05-01T12:04:09;100022.28;;;16.56;64.03
74893;BME280;63446;56.272;43.922;2023-05-01T12:06:43;100029.06;;;16.54;63.81
74893;BME280;63446;56.272;43.922;2023-05-01T12:09:14;100016.69;;;16.49;63.47
74893;BME280;63446;56.272;43.922;2023-05-01T12:11:41;100000.84;;;16.35;63.65
74893;BME280;63446;56.272;43.922;2023-05-01T12:14:07;100011.19;;;16.37;63.89
74893;BME280;63446;56.272;43.922;2023-05-01T12:16:34;100019.06;;;16.33;63.83
74893;BME280;63446;56.272;43.922;2023-05-01T12:19:01;100014.03;;;16.32;63.65
74893;BME280;63446;56.272;43.922;2023-05-01T12:21:28;100017.00;;;16.30;63.77
74893;BME280;63446;56.272;43.922;2023-05-01T12:23:54;100023.28;;;16.26;63.62
74893;BME280;63446;56.272;43.922;2023-05-01T12:26:21;100029.72;;;16.25;63.75
74893;BME280;63446;56.272;43.922;2023-05-01T12:28:58;100031.44;;;16.21;64.09
74893;BME280;63446;56.272;43.922;2023-05-01T12:31:25;100020.94;;;16.16;64.08
74893;BME280;63446;56.272;43.922;2023-05-01T12:33:57;100020.63;;;16.08;64.48
74893;BME280;63446;56.272;43.922;2023-05-01T12:36:26;100013.41;;;16.00;64.91
74893;BME280;63446;56.272;43.922;2023-05-01T12:39:05;100014.81;;;15.98;64.80
74893;BME280;63446;56.272;43.922;2023-05-01T12:41:35;100030.50;;;15.99;64.84
74893;BME280;63446;56.272;43.922;2023-05-01T12:44:05;100019.50;;;16.01;64.63
74893;BME280;63446;56.272;43.922;2023-05-01T12:46:39;100014.19;;;16.01;64.69
74893;BME280;63446;56.272;43.922;2023-05-01T12:49:05;100013.56;;;16.04;64.76
74893;BME280;63446;56.272;43.922;2023-05-01T12:51:32;100012.13;;;16.06;64.86
74893;BME280;63446;56.272;43.922;2023-05-01T12:53:58;99997.56;;;16.13;64.79
74893;BME280;63446;56.272;43.922;2023-05-01T12:56:24;100000.53;;;16.20;64.90
74893;BME280;63446;56.272;43.922;2023-05-01T12:58:51;100008.84;;;16.27;64.91
74893;BME280;63446;56.272;43.922;2023-05-01T13:01:28;100009.97;;;16.26;64.81
74893;BME280;63446;56.272;43.922;2023-05-01T13:03:54;100009.66;;;16.19;64.65
74893;BME280;63446;56.272;43.922;2023-05-01T13:06:30;100015.59;;;16.07;64.49
74893;BME280;63446;56.272;43.922;2023-05-01T13:09:07;100015.44;;;15.95;64.90
74893;BME280;63446;56.272;43.922;2023-05-01T13:11:38;100014.47;;;15.82;65.16
74893;BME280;63446;56.272;43.922;2023-05-01T13:14:08;100021.84;;;15.76;65.28
74893;BME280;63446;56.272;43.922;2023-05-01T13:16:43;100023.88;;;15.71;65.42
74893;BME280;63446;56.272;43.922;2023-05-01T13:19:12;100024.03;;;15.66;65.42
74893;BME280;63446;56.272;43.922;2023-05-01T13:21:48;100036.34;;;15.61;65.03
74893;BME280;63446;56.272;43.922;2023-05-01T13:24:14;100029.91;;;15.54;65.18
74893;BME280;63446;56.272;43.922;2023-05-01T13:26:43;100029.25;;;15.48;65.56
74893;BME280;63446;56.272;43.922;2023-05-01T13:29:13;100039.28;;;15.43;65.63
74893;BME280;63446;56.272;43.922;2023-05-01T13:31:43;100040.50;;;15.36;65.72
74893;BME280;63446;56.272;43.922;2023-05-01T13:34:10;100041.44;;;15.32;65.81
74893;BME280;63446;56.272;43.922;2023-05-01T13:36:38;100036.88;;;15.32;66.08
74893;BME280;63446;56.272;43.922;2023-05-01T13:39:05;100053.53;;;15.38;66.37
74893;BME280;63446;56.272;43.922;2023-05-01T13:41:32;100045.72;;;15.42;66.65